Duenweg, Missouri
Current Conditions -  °F | °C
As of 2:53 AM on Monday 20 Oct 2014 (Local Time) from KJLN Reporting Station
Overcast Overcast  
Wind Chill: 59°   Ceiling: 5000
Heat Index: 59°   Visibility: 10mi
Dew Point: 52°   Wind: 10mph
Humidity: 78%   Direction: 210°SSW
Pressure: 30.05"   Gusts: NA
Location:  37.08°N, 94.41°W
Report Text: KJLN 200753Z AUTO 21009KT 10SM OVC050 15/11 A3005 RMK AO2 SLP169 T01500111
Loading
Personal Weather Stations






























Interactive Weather Map
Tropical Storm Tracking
New forecast layout! Learn more

10-Day Weather Forecast

Advertisements
Track Severe Weather on mobile